createdAt,value
2019-06-27T00:00:26.028Z,72.60
2019-06-27T00:02:58.052Z,72.90
2019-06-27T00:05:29.978Z,72.99
2019-06-27T00:08:02.099Z,72.81
2019-06-27T00:10:34.614Z,72.74
2019-06-27T00:13:06.615Z,72.92
2019-06-27T00:15:38.660Z,72.88
2019-06-27T00:18:10.666Z,73.11
2019-06-27T00:20:42.711Z,73.16
2019-06-27T00:23:14.632Z,73.64
2019-06-27T00:25:46.676Z,74.00
2019-06-27T00:28:18.661Z,73.89
2019-06-27T00:30:50.648Z,74.29
2019-06-27T00:33:22.606Z,74.33
2019-06-27T00:35:54.590Z,74.52
2019-06-27T00:38:26.567Z,74.75
2019-06-27T00:40:58.548Z,74.80
2019-06-27T00:43:30.573Z,74.86
2019-06-27T00:46:02.615Z,74.96
2019-06-27T00:48:34.571Z,75.07
2019-06-27T00:51:06.544Z,74.81
2019-06-27T00:53:38.517Z,75.18
2019-06-27T00:56:10.487Z,74.58
2019-06-27T00:58:42.459Z,74.42
2019-06-27T01:01:14.477Z,73.98
2019-06-27T01:03:46.444Z,73.57
2019-06-27T01:06:20.025Z,73.72
2019-06-27T01:08:52.000Z,74.01
2019-06-27T01:11:23.973Z,74.18
2019-06-27T01:13:55.937Z,73.99
2019-06-27T01:16:27.926Z,74.05
2019-06-27T01:18:59.929Z,74.03
2019-06-27T01:21:31.912Z,74.14
2019-06-27T01:24:03.880Z,74.26
2019-06-27T01:26:35.860Z,74.37
2019-06-27T01:29:07.831Z,74.30
2019-06-27T01:31:39.810Z,73.92
2019-06-27T01:34:11.816Z,73.81
2019-06-27T01:36:43.782Z,73.49
2019-06-27T01:39:15.755Z,73.25
2019-06-27T01:41:47.736Z,73.25
2019-06-27T01:44:38.641Z,73.44
2019-06-27T01:47:10.742Z,73.59
2019-06-27T01:49:42.706Z,73.76
2019-06-27T01:52:14.699Z,73.88
2019-06-27T01:54:46.652Z,74.04
2019-06-27T01:57:18.699Z,74.34
2019-06-27T01:59:50.677Z,74.48
2019-06-27T02:02:22.646Z,74.63
2019-06-27T02:04:54.630Z,74.70
2019-06-27T02:07:26.595Z,74.94
2019-06-27T02:09:58.596Z,74.89
2019-06-27T02:12:30.562Z,74.92
2019-06-27T02:15:02.691Z,75.00
2019-06-27T02:17:34.659Z,74.74
2019-06-27T02:20:06.897Z,74.39
2019-06-27T02:22:38.840Z,74.28
2019-06-27T02:25:11.717Z,74.24
2019-06-27T02:27:43.665Z,74.57
2019-06-27T02:30:20.979Z,74.87
2019-06-27T02:32:52.934Z,75.00
2019-06-27T02:35:24.930Z,74.88
2019-06-27T02:37:56.898Z,74.98
2019-06-27T02:40:28.884Z,75.09
2019-06-27T02:43:00.856Z,75.32
2019-06-27T02:45:32.828Z,75.48
2019-06-27T02:48:04.774Z,75.51
2019-06-27T02:50:36.760Z,75.86
2019-06-27T02:53:08.733Z,75.87
2019-06-27T02:55:40.705Z,75.86
2019-06-27T02:58:28.595Z,76.45
2019-06-27T03:00:46.555Z,76.36
2019-06-27T03:03:18.508Z,76.51
2019-06-27T03:05:50.496Z,76.21
2019-06-27T03:08:22.446Z,76.49
2019-06-27T03:10:54.477Z,76.24
2019-06-27T03:13:26.425Z,76.40
2019-06-27T03:15:58.403Z,76.29
2019-06-27T03:18:30.375Z,76.37
2019-06-27T03:21:02.355Z,76.17
2019-06-27T03:23:34.298Z,76.06
2019-06-27T03:26:06.558Z,76.21
2019-06-27T03:28:52.261Z,76.03
2019-06-27T03:31:12.546Z,75.63
2019-06-27T03:33:44.526Z,75.80
2019-06-27T03:36:16.505Z,75.98
2019-06-27T03:38:48.477Z,76.11
2019-06-27T03:41:20.451Z,75.64
2019-06-27T03:43:52.411Z,75.62
2019-06-27T03:46:24.470Z,75.84
2019-06-27T03:48:56.429Z,75.55
2019-06-27T03:51:28.452Z,75.38
2019-06-27T03:54:00.421Z,75.44
2019-06-27T03:56:32.430Z,75.61
2019-06-27T03:59:12.472Z,75.11
2019-06-27T04:01:38.269Z,74.99
2019-06-27T04:04:10.307Z,75.07
2019-06-27T04:06:42.289Z,75.46
2019-06-27T04:09:14.266Z,75.79
2019-06-27T04:11:46.414Z,75.81
2019-06-27T04:14:18.395Z,76.06
2019-06-27T04:16:50.393Z,75.95
2019-06-27T04:19:22.344Z,75.95
2019-06-27T04:21:54.641Z,75.79
2019-06-27T04:24:26.611Z,75.37
2019-06-27T04:26:58.624Z,75.13
2019-06-27T04:29:34.120Z,75.11
2019-06-27T04:32:04.468Z,75.30
2019-06-27T04:34:36.435Z,74.64
2019-06-27T04:37:08.568Z,74.62
2019-06-27T04:39:40.528Z,74.41
2019-06-27T04:42:12.697Z,74.38
2019-06-27T04:44:44.776Z,73.88
2019-06-27T04:47:16.875Z,73.27
2019-06-27T04:49:48.974Z,72.48
2019-06-27T04:52:21.001Z,71.07
2019-06-27T04:54:54.280Z,70.18
2019-06-27T04:57:26.354Z,68.73
2019-06-27T04:59:58.307Z,67.44
2019-06-27T05:02:30.981Z,66.12
2019-06-27T05:05:03.088Z,64.59
2019-06-27T05:07:35.089Z,63.15
2019-06-27T05:10:07.058Z,62.40
2019-06-27T05:12:39.154Z,61.67
2019-06-27T05:15:11.819Z,60.89
2019-06-27T05:17:43.803Z,60.12
2019-06-27T05:20:16.670Z,59.46
2019-06-27T05:22:48.688Z,58.81
2019-06-27T05:25:20.648Z,58.31
2019-06-27T05:27:52.898Z,59.03
2019-06-27T05:30:24.867Z,58.42
2019-06-27T05:32:56.859Z,57.99
2019-06-27T05:35:28.822Z,56.96
2019-06-27T05:38:00.852Z,55.87
2019-06-27T05:40:32.836Z,55.31
2019-06-27T05:43:05.672Z,54.71
2019-06-27T05:45:37.644Z,54.25
2019-06-27T05:48:09.672Z,53.86
2019-06-27T05:50:41.710Z,53.81
2019-06-27T05:53:13.649Z,53.47
2019-06-27T05:55:45.742Z,53.03
2019-06-27T05:58:17.725Z,52.24
2019-06-27T06:00:49.682Z,51.57
2019-06-27T06:03:21.677Z,51.01
2019-06-27T06:05:53.652Z,50.39
2019-06-27T06:08:25.626Z,49.09
2019-06-27T06:10:57.576Z,48.98
2019-06-27T06:13:29.562Z,48.42
2019-06-27T06:16:01.676Z,47.53
2019-06-27T06:18:33.707Z,46.69
2019-06-27T06:21:05.691Z,45.73
2019-06-27T06:23:37.696Z,45.22
2019-06-27T06:26:09.661Z,44.67
2019-06-27T06:28:41.671Z,44.67
2019-06-27T06:31:13.668Z,43.86
2019-06-27T06:33:45.652Z,42.75
2019-06-27T06:36:17.573Z,42.24
2019-06-27T06:38:49.757Z,42.88
2019-06-27T06:41:21.743Z,42.68
2019-06-27T06:43:53.799Z,42.34
2019-06-27T06:46:25.771Z,41.74
2019-06-27T06:48:57.835Z,41.58
2019-06-27T06:51:29.837Z,40.85
2019-06-27T06:54:02.341Z,41.02
2019-06-27T06:56:34.404Z,40.50
2019-06-27T06:59:06.401Z,40.16
2019-06-27T07:01:38.368Z,40.68
2019-06-27T07:04:10.340Z,40.62
2019-06-27T07:06:42.331Z,40.27
2019-06-27T07:09:14.338Z,40.24
2019-06-27T07:11:46.298Z,39.33
2019-06-27T07:14:18.274Z,39.56
2019-06-27T07:16:50.253Z,39.62
2019-06-27T07:19:22.232Z,39.44
2019-06-27T07:21:54.187Z,39.22
2019-06-27T07:24:26.180Z,38.97
2019-06-27T07:26:58.124Z,38.29
2019-06-27T07:29:30.115Z,38.16
2019-06-27T07:32:02.081Z,38.33
2019-06-27T07:34:34.061Z,37.76
2019-06-27T07:37:06.054Z,37.96
2019-06-27T07:39:38.046Z,37.83
2019-06-27T07:42:10.017Z,37.33
2019-06-27T07:44:42.009Z,37.24
2019-06-27T07:47:13.970Z,37.15
2019-06-27T07:49:45.937Z,37.05
2019-06-27T07:52:17.906Z,35.76
2019-06-27T07:54:49.967Z,34.74
2019-06-27T07:57:21.912Z,35.38
2019-06-27T07:59:53.900Z,35.55
2019-06-27T08:02:25.923Z,34.35
2019-06-27T08:04:57.971Z,34.09
2019-06-27T08:07:29.957Z,33.95
2019-06-27T08:10:02.083Z,33.94
2019-06-27T08:12:34.222Z,33.43
2019-06-27T08:15:06.502Z,33.10
2019-06-27T08:17:38.495Z,33.59
2019-06-27T08:20:10.429Z,32.92
2019-06-27T08:22:42.413Z,32.28
2019-06-27T08:25:14.567Z,33.91
2019-06-27T08:27:46.562Z,34.10
2019-06-27T08:30:18.919Z,35.30
2019-06-27T08:32:50.910Z,34.44
2019-06-27T08:35:22.872Z,35.05
2019-06-27T08:37:54.877Z,34.80
2019-06-27T08:40:26.918Z,34.82
2019-06-27T08:42:58.900Z,35.98
2019-06-27T08:45:30.915Z,36.67
2019-06-27T08:48:02.946Z,36.24
2019-06-27T08:50:34.909Z,36.89
2019-06-27T08:53:06.892Z,36.73
2019-06-27T08:55:38.836Z,36.97
2019-06-27T08:58:10.846Z,38.00
2019-06-27T09:00:45.820Z,38.05
2019-06-27T09:03:16.885Z,38.55
2019-06-27T09:05:48.834Z,38.34
2019-06-27T09:08:20.824Z,38.24
2019-06-27T09:10:52.819Z,38.67
2019-06-27T09:13:24.833Z,39.05
2019-06-27T09:15:56.841Z,39.04
2019-06-27T09:18:28.820Z,38.96
2019-06-27T09:21:00.862Z,39.81
2019-06-27T09:23:32.912Z,38.93
2019-06-27T09:26:04.883Z,38.12
2019-06-27T09:28:36.868Z,38.45
2019-06-27T09:31:08.873Z,38.53
2019-06-27T09:33:40.840Z,39.60
2019-06-27T09:36:12.807Z,37.50
2019-06-27T09:38:44.783Z,40.19
2019-06-27T09:41:16.833Z,39.25
2019-06-27T09:43:48.959Z,38.68
2019-06-27T09:46:20.938Z,39.23
2019-06-27T09:48:52.920Z,39.94
2019-06-27T09:51:24.880Z,39.08
2019-06-27T09:53:56.854Z,38.65
2019-06-27T09:56:28.807Z,38.86
2019-06-27T09:59:00.786Z,39.31
2019-06-27T10:01:32.755Z,38.54
2019-06-27T10:04:04.814Z,37.96
2019-06-27T10:06:36.772Z,38.57
2019-06-27T10:09:08.768Z,38.70
2019-06-27T10:11:40.734Z,39.32
2019-06-27T10:14:12.751Z,39.33
2019-06-27T10:16:44.750Z,39.17
2019-06-27T10:19:16.846Z,39.23
2019-06-27T10:21:48.815Z,39.69
2019-06-27T10:24:20.823Z,40.10
2019-06-27T10:26:52.828Z,39.59
2019-06-27T10:29:24.824Z,39.36
2019-06-27T10:31:56.807Z,39.34
2019-06-27T10:34:28.790Z,40.26
2019-06-27T10:37:00.726Z,40.79
2019-06-27T10:39:32.763Z,39.46
2019-06-27T10:42:04.723Z,39.73
2019-06-27T10:44:36.751Z,39.35
2019-06-27T10:47:08.695Z,38.28
2019-06-27T10:49:40.687Z,39.57
2019-06-27T10:52:12.756Z,39.42
2019-06-27T10:54:44.733Z,38.45
2019-06-27T10:57:16.820Z,39.04
2019-06-27T10:59:48.764Z,38.04
2019-06-27T11:02:20.812Z,38.71
2019-06-27T11:04:52.774Z,38.92
2019-06-27T11:07:24.876Z,38.81
2019-06-27T11:09:56.873Z,39.26
2019-06-27T11:12:28.963Z,38.69
2019-06-27T11:15:00.941Z,39.10
2019-06-27T11:17:32.950Z,37.89
2019-06-27T11:20:04.931Z,39.07
2019-06-27T11:22:36.928Z,38.17
2019-06-27T11:25:09.263Z,38.96
2019-06-27T11:27:41.244Z,38.18
2019-06-27T11:30:13.320Z,38.43
2019-06-27T11:32:45.329Z,38.28
2019-06-27T11:35:17.321Z,37.52
2019-06-27T11:37:49.308Z,37.78
2019-06-27T11:40:23.100Z,37.26
2019-06-27T11:42:55.109Z,37.41
2019-06-27T11:45:27.128Z,37.50
2019-06-27T11:47:59.176Z,37.54
2019-06-27T11:50:31.140Z,38.45
2019-06-27T11:53:03.094Z,38.80
2019-06-27T11:55:35.128Z,37.37
2019-06-27T11:58:07.249Z,39.43
2019-06-27T12:00:39.273Z,39.75
2019-06-27T12:03:11.260Z,39.74
2019-06-27T12:05:43.264Z,39.67
2019-06-27T12:08:15.245Z,39.80
2019-06-27T12:10:47.286Z,39.76
2019-06-27T12:13:19.209Z,39.63
2019-06-27T12:15:51.763Z,39.83
2019-06-27T12:18:23.881Z,39.52
2019-06-27T12:20:55.873Z,39.59
2019-06-27T12:23:27.845Z,39.20
2019-06-27T12:25:59.838Z,39.13
2019-06-27T12:28:31.892Z,39.81
2019-06-27T12:31:19.456Z,39.93
2019-06-27T12:33:37.775Z,40.27
2019-06-27T12:36:09.795Z,40.95
2019-06-27T12:38:41.800Z,38.99
2019-06-27T12:41:13.827Z,40.38
2019-06-27T12:43:45.808Z,39.87
2019-06-27T12:46:17.800Z,38.42
2019-06-27T12:48:49.795Z,39.46
2019-06-27T12:51:21.919Z,39.00
2019-06-27T12:53:56.049Z,39.20
2019-06-27T12:56:27.867Z,39.40
2019-06-27T12:58:59.868Z,38.39
2019-06-27T13:01:31.842Z,38.55
2019-06-27T13:04:03.970Z,38.88
2019-06-27T13:06:35.966Z,38.04
2019-06-27T13:09:07.995Z,38.69
2019-06-27T13:11:39.970Z,39.35
2019-06-27T13:14:11.986Z,40.47
2019-06-27T13:16:43.956Z,40.39
2019-06-27T13:19:15.940Z,39.86
2019-06-27T13:21:47.944Z,39.50
2019-06-27T13:24:19.949Z,39.97
2019-06-27T13:26:51.942Z,41.08
2019-06-27T13:29:26.830Z,40.26
2019-06-27T13:31:57.851Z,40.45
2019-06-27T13:34:39.944Z,41.37
2019-06-27T13:37:03.846Z,39.87
2019-06-27T13:39:35.863Z,40.29
2019-06-27T13:42:07.905Z,40.48
2019-06-27T13:44:40.985Z,40.36
2019-06-27T13:47:12.992Z,40.35
2019-06-27T13:49:45.475Z,40.07
2019-06-27T13:52:17.543Z,39.51
2019-06-27T13:54:49.510Z,39.94
2019-06-27T13:57:21.811Z,39.83
2019-06-27T13:59:53.819Z,39.83
2019-06-27T14:02:25.806Z,39.39
2019-06-27T14:04:58.046Z,38.79
2019-06-27T14:07:30.071Z,39.17
2019-06-27T14:10:02.126Z,39.43
2019-06-27T14:12:34.117Z,39.23
2019-06-27T14:15:06.444Z,39.65
2019-06-27T14:17:38.461Z,39.94
2019-06-27T14:20:10.519Z,39.64
2019-06-27T14:22:42.500Z,39.05
2019-06-27T14:25:14.720Z,40.05
2019-06-27T14:27:46.715Z,39.91
2019-06-27T14:30:18.918Z,40.24
2019-06-27T14:32:53.221Z,40.41
2019-06-27T14:35:24.789Z,40.45
2019-06-27T14:37:56.760Z,39.93
2019-06-27T14:40:28.727Z,40.60
2019-06-27T14:43:00.706Z,40.83
2019-06-27T14:45:32.747Z,40.55
2019-06-27T14:48:04.717Z,40.97
2019-06-27T14:50:36.740Z,40.51
2019-06-27T14:53:08.749Z,39.43
2019-06-27T14:55:40.748Z,40.64
2019-06-27T14:58:12.790Z,40.05
2019-06-27T15:00:44.813Z,40.86
2019-06-27T15:03:16.789Z,40.53
2019-06-27T15:05:48.759Z,40.56
2019-06-27T15:08:20.716Z,40.73
2019-06-27T15:10:52.708Z,40.56
2019-06-27T15:13:24.676Z,40.52
2019-06-27T15:16:10.780Z,40.61
2019-06-27T15:18:30.612Z,40.72
2019-06-27T15:21:02.653Z,41.16
2019-06-27T15:23:34.623Z,40.89
2019-06-27T15:26:06.721Z,41.04
2019-06-27T15:28:38.764Z,41.40
2019-06-27T15:31:10.765Z,41.82
2019-06-27T15:33:42.737Z,41.63
2019-06-27T15:36:14.874Z,41.39
2019-06-27T15:38:46.846Z,41.19
2019-06-27T15:41:18.981Z,41.36
2019-06-27T15:43:50.992Z,41.81
2019-06-27T15:46:23.080Z,41.53
2019-06-27T15:48:55.021Z,41.51
2019-06-27T15:51:27.078Z,42.04
2019-06-27T15:53:59.045Z,41.74
2019-06-27T15:56:31.155Z,41.51
2019-06-27T15:59:03.881Z,42.19
2019-06-27T16:01:36.169Z,42.30
2019-06-27T16:04:08.153Z,42.18
2019-06-27T16:06:40.198Z,43.16
2019-06-27T16:09:12.191Z,42.56
2019-06-27T16:11:44.338Z,43.23
2019-06-27T16:14:16.367Z,43.07
2019-06-27T16:16:48.370Z,43.44
2019-06-27T16:19:20.355Z,44.32
2019-06-27T16:21:52.355Z,44.50
2019-06-27T16:24:24.361Z,44.53
2019-06-27T16:26:56.425Z,44.86
2019-06-27T16:29:28.453Z,44.75
2019-06-27T16:32:00.672Z,44.62
2019-06-27T16:34:32.679Z,44.78
2019-06-27T16:37:04.843Z,45.01
2019-06-27T16:39:39.005Z,45.22
2019-06-27T16:42:10.804Z,45.10
2019-06-27T16:44:42.787Z,44.74
2019-06-27T16:47:14.972Z,44.62
2019-06-27T16:49:46.909Z,43.65
2019-06-27T16:52:18.949Z,43.45
2019-06-27T16:54:50.925Z,43.59
2019-06-27T16:57:23.024Z,43.63
2019-06-27T16:59:55.014Z,43.39
2019-06-27T17:02:27.181Z,42.72
2019-06-27T17:04:59.156Z,42.97
2019-06-27T17:07:31.181Z,43.52
2019-06-27T17:10:03.429Z,43.35
2019-06-27T17:12:35.416Z,42.61
2019-06-27T17:15:08.716Z,42.91
2019-06-27T17:17:40.738Z,42.81
2019-06-27T17:20:12.834Z,43.17
2019-06-27T17:22:44.858Z,43.14
2019-06-27T17:25:16.837Z,43.10
2019-06-27T17:27:48.838Z,42.82
2019-06-27T17:30:21.368Z,43.09
2019-06-27T17:32:53.398Z,43.27
2019-06-27T17:35:25.420Z,43.31
2019-06-27T17:37:57.437Z,42.83
2019-06-27T17:40:29.537Z,43.06
2019-06-27T17:43:01.596Z,42.81
2019-06-27T17:45:33.575Z,43.00
2019-06-27T17:48:05.592Z,41.50
2019-06-27T17:50:37.590Z,40.54
2019-06-27T17:53:09.604Z,41.15
2019-06-27T17:55:41.639Z,40.73
2019-06-27T17:58:13.638Z,41.02
2019-06-27T18:00:45.729Z,40.76
2019-06-27T18:03:17.753Z,40.71
2019-06-27T18:05:49.836Z,41.25
2019-06-27T18:08:21.818Z,41.17
2019-06-27T18:10:53.821Z,41.45
2019-06-27T18:13:25.803Z,42.04
2019-06-27T18:15:57.853Z,41.48
2019-06-27T18:18:29.877Z,41.47
2019-06-27T18:21:01.895Z,45.21
2019-06-27T18:23:33.917Z,46.42
2019-06-27T18:26:05.935Z,46.45
2019-06-27T18:28:37.963Z,47.18
2019-06-27T18:31:09.953Z,47.61
2019-06-27T18:33:41.955Z,47.86
2019-06-27T18:36:13.951Z,45.40
2019-06-27T18:38:45.985Z,43.09
2019-06-27T18:41:17.983Z,41.70
2019-06-27T18:43:49.980Z,41.81
2019-06-27T18:46:22.000Z,42.30
2019-06-27T18:48:54.046Z,41.13
2019-06-27T18:51:26.098Z,40.88
2019-06-27T18:54:00.931Z,41.09
2019-06-27T18:56:32.023Z,41.17
2019-06-27T18:59:04.088Z,38.67
2019-06-27T19:01:36.234Z,38.38
2019-06-27T19:04:08.220Z,38.19
2019-06-27T19:06:40.235Z,38.98
2019-06-27T19:09:12.241Z,39.21
2019-06-27T19:11:44.293Z,39.47
2019-06-27T19:14:16.303Z,39.56
2019-06-27T19:16:48.296Z,40.02
2019-06-27T19:19:23.241Z,39.79
2019-06-27T19:22:23.707Z,38.68
2019-06-27T19:25:06.508Z,39.30
2019-06-27T19:27:38.519Z,40.01
2019-06-27T19:30:10.746Z,40.82
2019-06-27T19:32:42.891Z,41.03
2019-06-27T19:35:14.913Z,41.06
2019-06-27T19:38:00.966Z,41.77
2019-06-27T19:40:20.933Z,40.44
2019-06-27T19:42:52.952Z,40.47
2019-06-27T19:45:24.977Z,39.62
2019-06-27T19:47:56.992Z,38.10
2019-06-27T19:50:28.983Z,40.02
2019-06-27T19:53:01.051Z,40.28
2019-06-27T19:55:33.056Z,40.21
2019-06-27T19:58:05.091Z,39.93
2019-06-27T20:00:37.172Z,39.90
2019-06-27T20:03:09.176Z,40.78
2019-06-27T20:05:41.146Z,41.21
2019-06-27T20:08:19.449Z,41.53
2019-06-27T20:10:47.110Z,41.79
2019-06-27T20:13:19.126Z,41.71
2019-06-27T20:15:51.104Z,42.70
2019-06-27T20:18:23.143Z,42.94
2019-06-27T20:20:55.164Z,43.43
2019-06-27T20:23:27.254Z,44.06
2019-06-27T20:25:59.219Z,45.15
2019-06-27T20:28:31.263Z,46.26
2019-06-27T20:31:03.252Z,46.56
2019-06-27T20:33:35.242Z,47.29
2019-06-27T20:36:07.274Z,47.40
2019-06-27T20:38:39.337Z,47.16
2019-06-27T20:41:11.355Z,46.79
2019-06-27T20:43:43.421Z,47.25
2019-06-27T20:46:15.416Z,47.59
2019-06-27T20:48:47.442Z,48.22
2019-06-27T20:51:19.503Z,48.06
2019-06-27T20:53:51.520Z,48.65
2019-06-27T20:56:23.532Z,48.88
2019-06-27T20:58:55.570Z,48.93
2019-06-27T21:01:30.528Z,48.97
2019-06-27T21:04:01.583Z,49.97
2019-06-27T21:06:33.566Z,48.97
2019-06-27T21:09:05.615Z,49.38
2019-06-27T21:11:37.639Z,48.94
2019-06-27T21:14:09.708Z,50.14
2019-06-27T21:16:41.733Z,50.97
2019-06-27T21:19:13.712Z,51.13
2019-06-27T21:21:45.746Z,50.45
2019-06-27T21:24:17.770Z,50.82
2019-06-27T21:26:49.804Z,51.46
2019-06-27T21:29:21.775Z,51.18
2019-06-27T21:31:53.895Z,51.73
2019-06-27T21:34:25.899Z,51.76
2019-06-27T21:36:57.880Z,51.52
2019-06-27T21:39:29.859Z,51.52
2019-06-27T21:42:01.906Z,51.56
2019-06-27T21:44:33.895Z,51.12
2019-06-27T21:47:05.933Z,51.18
2019-06-27T21:49:37.974Z,51.16
2019-06-27T21:52:10.074Z,51.53
2019-06-27T21:54:42.074Z,51.44
2019-06-27T21:57:14.272Z,51.04
2019-06-27T21:59:46.379Z,51.33
2019-06-27T22:02:18.399Z,52.11
2019-06-27T22:04:50.365Z,53.03
2019-06-27T22:07:22.380Z,53.12
2019-06-27T22:09:54.356Z,52.05
2019-06-27T22:12:26.387Z,52.37
2019-06-27T22:14:58.388Z,50.83
2019-06-27T22:17:30.417Z,50.55
2019-06-27T22:20:14.595Z,50.28
2019-06-27T22:22:36.290Z,51.05
2019-06-27T22:25:09.059Z,51.55
2019-06-27T22:27:41.003Z,52.73
2019-06-27T22:30:13.333Z,53.36
2019-06-27T22:32:45.379Z,53.21
2019-06-27T22:35:17.380Z,53.32
2019-06-27T22:38:07.733Z,53.14
2019-06-27T22:40:58.027Z,53.52
2019-06-27T22:43:48.174Z,53.55
2019-06-27T22:46:38.397Z,54.49
2019-06-27T22:49:10.789Z,54.62
2019-06-27T22:52:02.648Z,54.89
2019-06-27T22:54:35.920Z,55.04
2019-06-27T22:57:07.924Z,55.29
2019-06-27T22:59:39.953Z,54.95
2019-06-27T23:02:11.949Z,54.80
2019-06-27T23:04:43.937Z,55.29
2019-06-27T23:07:15.892Z,55.44
2019-06-27T23:09:56.998Z,54.85
2019-06-27T23:12:21.751Z,54.59
2019-06-27T23:14:53.780Z,53.74
2019-06-27T23:17:25.738Z,53.31
2019-06-27T23:19:57.828Z,52.43
2019-06-27T23:22:29.764Z,53.90
2019-06-27T23:25:01.864Z,54.20
2019-06-27T23:27:33.964Z,54.03
2019-06-27T23:30:06.341Z,54.38
2019-06-27T23:32:38.450Z,54.39
2019-06-27T23:35:10.763Z,54.10
2019-06-27T23:37:42.701Z,55.70
2019-06-27T23:40:15.271Z,56.10
2019-06-27T23:42:47.304Z,55.49
2019-06-27T23:45:19.387Z,55.33
2019-06-27T23:47:51.330Z,55.37
2019-06-27T23:50:23.302Z,56.46
2019-06-27T23:52:55.270Z,56.46
2019-06-27T23:55:27.218Z,57.85
2019-06-27T23:57:59.191Z,57.44
